Time;durP1;ratioP1;P1;durP2;ratioP2;P2;SDS_P1;SDS_P2;PMS_P1;PMS_P2;Temp;Humidity;BMP_temperature;BMP_pressure;BME280_temperature;BME280_humidity;BME280_pressure;Samples;Min_cycle;Max_cycle;Signal;HPM_P1;HPM_P2
2023/08/29 00:00:41;;;;;;;3.35;0.95;;;;;;;;;;5063278;28;20056;-74
2023/08/29 00:03:12;;;;;;;5.53;1.55;;;;;;;;;;5062169;28;20066;-73
2023/08/29 00:05:42;;;;;;;2.17;1.17;;;;;;;;;;5063710;28;20537;-73
2023/08/29 00:08:13;;;;;;;3.53;1.00;;;;;;;;;;5063744;28;20063;-73
2023/08/29 00:10:43;;;;;;;5.28;1.30;;;;;;;;;;5061117;28;20052;-71
2023/08/29 00:13:13;;;;;;;3.47;0.90;;;;;;;;;;5064419;28;20511;-77
2023/08/29 00:15:44;;;;;;;2.42;0.75;;;;;;;;;;5061015;28;20049;-73
2023/08/29 00:18:14;;;;;;;2.17;0.70;;;;;;;;;;5063558;28;20047;-70
2023/08/29 00:20:45;;;;;;;2.53;0.70;;;;;;;;;;5061406;28;20064;-72
2023/08/29 00:23:15;;;;;;;4.50;1.10;;;;;;;;;;5063773;28;20067;-71
2023/08/29 00:25:49;;;;;;;6.97;1.50;;;;;;;;;;5063104;28;20422;-75
2023/08/29 00:28:21;;;;;;;1.88;1.00;;;;;;;;;;5062847;28;20053;-74
2023/08/29 00:30:51;;;;;;;1.30;0.82;;;;;;;;;;5061473;28;20064;-73
2023/08/29 00:33:23;;;;;;;1.70;1.00;;;;;;;;;;5063442;28;20048;-74
2023/08/29 00:35:52;;;;;;;;;;;;;;;;;;5062111;28;20531;-71
2023/08/29 00:38:22;;;;;;;4.43;1.42;;;;;;;;;;5062158;28;20625;-71
2023/08/29 00:40:53;;;;;;;4.53;0.82;;;;;;;;;;5060240;28;20353;-72
2023/08/29 00:43:25;;;;;;;2.40;0.80;;;;;;;;;;5062758;28;20047;-70
2023/08/29 00:45:55;;;;;;;4.05;1.30;;;;;;;;;;5063660;28;20040;-73
2023/08/29 00:48:26;;;;;;;4.32;1.08;;;;;;;;;;5062838;28;20407;-72
2023/08/29 00:50:58;;;;;;;3.78;1.27;;;;;;;;;;5061865;28;20048;-71
2023/08/29 00:53:30;;;;;;;6.32;1.00;;;;;;;;;;5062668;28;20052;-71
2023/08/29 00:56:01;;;;;;;3.53;0.77;;;;;;;;;;5063221;28;20052;-71
2023/08/29 00:58:34;;;;;;;1.27;0.68;;;;;;;;;;5061281;28;20523;-73
2023/08/29 01:01:04;;;;;;;1.08;0.60;;;;;;;;;;5062256;28;20056;-71
2023/08/29 01:03:36;;;;;;;10.48;2.97;;;;;;;;;;5062451;28;20040;-73
2023/08/29 01:06:06;;;;;;;13.82;2.90;;;;;;;;;;5061481;28;20044;-72
2023/08/29 01:08:36;;;;;;;9.98;3.35;;;;;;;;;;5064724;28;20388;-72
2023/08/29 01:11:12;;;;;;;13.93;5.40;;;;;;;;;;5066838;28;20048;-73
2023/08/29 01:13:56;;;;;;;23.33;13.63;;;;;;;;;;5064579;28;20055;-74
2023/08/29 01:16:36;;;;;;;14.15;6.50;;;;;;;;;;5064187;28;20047;-71
2023/08/29 01:19:14;;;;;;;6.47;4.80;;;;;;;;;;5066863;28;20071;-72
2023/08/29 01:22:07;;;;;;;5.53;1.17;;;;;;;;;;5064770;28;20419;-72
2023/08/29 01:24:45;;;;;;;1.65;1.08;;;;;;;;;;5066289;28;20045;-73
2023/08/29 01:27:17;;;;;;;1.83;1.20;;;;;;;;;;5066890;28;20052;-72
2023/08/29 01:29:50;;;;;;;4.78;2.83;;;;;;;;;;5066039;28;20044;-73
2023/08/29 01:32:21;;;;;;;3.58;1.40;;;;;;;;;;5064755;28;20056;-73
2023/08/29 01:34:52;;;;;;;3.05;0.85;;;;;;;;;;5065736;28;20063;-72
2023/08/29 01:37:21;;;;;;;4.22;0.68;;;;;;;;;;5066221;28;20067;-73
2023/08/29 01:39:52;;;;;;;1.80;0.52;;;;;;;;;;5066267;28;20566;-73
2023/08/29 01:42:25;;;;;;;2.53;0.50;;;;;;;;;;5066242;28;20049;-71
2023/08/29 01:44:58;;;;;;;4.85;1.00;;;;;;;;;;5064743;28;20052;-72
2023/08/29 01:47:28;;;;;;;2.38;0.50;;;;;;;;;;5064607;28;20044;-73
2023/08/29 01:50:04;;;;;;;2.58;0.60;;;;;;;;;;5064746;28;20507;-72
2023/08/29 01:52:35;;;;;;;1.55;0.65;;;;;;;;;;5064969;28;20068;-70
2023/08/29 01:55:06;;;;;;;1.05;0.57;;;;;;;;;;5062933;28;20559;-72
2023/08/29 01:57:38;;;;;;;2.80;0.63;;;;;;;;;;5066400;28;20052;-72
2023/08/29 02:00:11;;;;;;;5.03;0.82;;;;;;;;;;5064422;28;20063;-72
2023/08/29 02:02:42;;;;;;;5.18;1.00;;;;;;;;;;5070371;28;20064;-71
2023/08/29 02:05:12;;;;;;;4.88;0.90;;;;;;;;;;5066098;28;20040;-71
2023/08/29 02:07:42;;;;;;;;;;;;;;;;;;5065906;28;20051;-72
2023/08/29 02:10:12;;;;;;;5.40;0.90;;;;;;;;;;5065597;28;19924;-71
2023/08/29 02:12:44;;;;;;;5.80;0.80;;;;;;;;;;5064744;28;20048;-73
2023/08/29 02:15:16;;;;;;;1.38;0.60;;;;;;;;;;5063976;28;20511;-74
2023/08/29 02:17:46;;;;;;;1.27;0.80;;;;;;;;;;5064263;28;20060;-71
2023/08/29 02:20:16;;;;;;;1.33;0.52;;;;;;;;;;5064979;28;20040;-71
2023/08/29 02:22:47;;;;;;;1.42;0.75;;;;;;;;;;5065339;28;20060;-73
2023/08/29 02:25:20;;;;;;;2.90;0.60;;;;;;;;;;5048231;28;20048;-71
2023/08/29 02:27:50;;;;;;;1.42;0.70;;;;;;;;;;5066119;28;20408;-73
2023/08/29 02:30:20;;;;;;;1.52;0.80;;;;;;;;;;5065205;28;20056;-71
2023/08/29 02:32:51;;;;;;;1.30;0.80;;;;;;;;;;5065155;28;20049;-72
2023/08/29 02:35:24;;;;;;;3.28;0.73;;;;;;;;;;5064777;28;20408;-72
2023/08/29 02:37:54;;;;;;;4.47;0.82;;;;;;;;;;5065625;28;20123;-71
2023/08/29 02:40:24;;;;;;;4.78;0.80;;;;;;;;;;5064762;28;20060;-72
2023/08/29 02:42:55;;;;;;;2.15;0.50;;;;;;;;;;5063468;28;20067;-72
2023/08/29 02:45:25;;;;;;;4.20;0.50;;;;;;;;;;5063695;28;20056;-73
2023/08/29 02:47:55;;;;;;;1.15;0.50;;;;;;;;;;5063030;28;20053;-73
2023/08/29 02:50:25;;;;;;;0.60;0.60;;;;;;;;;;5065122;28;20040;-70
2023/08/29 02:52:55;;;;;;;2.80;0.50;;;;;;;;;;5063464;28;20056;-70
2023/08/29 02:55:25;;;;;;;8.15;0.70;;;;;;;;;;5063167;28;20044;-70
2023/08/29 02:57:56;;;;;;;2.80;0.60;;;;;;;;;;5063686;28;20503;-70
2023/08/29 03:00:27;;;;;;;2.22;0.50;;;;;;;;;;5063673;28;20060;-71
2023/08/29 03:02:58;;;;;;;0.77;0.63;;;;;;;;;;5064843;28;20055;-71
2023/08/29 03:05:27;;;;;;;;;;;;;;;;;;5065562;28;20040;-72
2023/08/29 03:07:57;;;;;;;1.55;0.60;;;;;;;;;;5064821;28;19925;-73
2023/08/29 03:10:30;;;;;;;2.25;0.60;;;;;;;;;;5064722;28;20052;-71
2023/08/29 03:13:00;;;;;;;1.63;0.47;;;;;;;;;;5063295;28;20428;-72
2023/08/29 03:15:34;;;;;;;2.42;0.35;;;;;;;;;;5062752;28;20479;-72
2023/08/29 03:18:05;;;;;;;0.75;0.40;;;;;;;;;;5064315;28;20052;-72
2023/08/29 03:20:44;;;;;;;4.38;0.63;;;;;;;;;;5062491;28;20553;-72
2023/08/29 03:23:17;;;;;;;1.73;0.60;;;;;;;;;;5063842;28;20067;-74
2023/08/29 03:25:48;;;;;;;2.42;0.45;;;;;;;;;;5064493;28;20526;-70
2023/08/29 03:28:17;;;;;;;;;;;;;;;;;;5064677;28;20052;-71
2023/08/29 03:30:49;;;;;;;1.50;0.98;;;;;;;;;;5062369;28;19924;-72
2023/08/29 03:33:20;;;;;;;2.72;1.45;;;;;;;;;;5063360;28;20442;-72
2023/08/29 03:36:00;;;;;;;8.20;3.67;;;;;;;;;;5063565;28;20052;-72
2023/08/29 03:38:31;;;;;;;3.72;1.58;;;;;;;;;;5064074;28;20052;-72
2023/08/29 03:41:00;;;;;;;;;;;;;;;;;;5064277;28;20793;-74
2023/08/29 03:43:31;;;;;;;0.30;0.25;;;;;;;;;;5063819;28;20395;-72
2023/08/29 03:46:06;;;;;;;0.40;0.40;;;;;;;;;;5062352;28;20811;-72
2023/08/29 03:48:37;;;;;;;1.13;0.52;;;;;;;;;;5064280;28;20051;-72
2023/08/29 03:51:08;;;;;;;0.50;0.47;;;;;;;;;;5062531;28;20055;-72
2023/08/29 03:53:38;;;;;;;;;;;;;;;;;;5064672;28;20044;-73
2023/08/29 03:56:10;;;;;;;0.88;0.60;;;;;;;;;;5062511;28;19924;-71
2023/08/29 03:58:41;;;;;;;2.63;0.70;;;;;;;;;;5061740;28;20053;-72
2023/08/29 04:01:11;;;;;;;1.33;0.50;;;;;;;;;;5062278;28;20048;-72
2023/08/29 04:03:42;;;;;;;2.63;0.50;;;;;;;;;;5063442;28;20044;-73
2023/08/29 04:06:14;;;;;;;2.72;0.77;;;;;;;;;;5062273;28;20732;-72
2023/08/29 04:08:45;;;;;;;2.30;0.57;;;;;;;;;;5063249;28;20056;-72
2023/08/29 04:11:16;;;;;;;1.52;0.60;;;;;;;;;;5061549;28;20514;-73
2023/08/29 04:13:45;;;;;;;;;;;;;;;;;;5062010;28;20048;-73
2023/08/29 04:16:15;;;;;;;1.73;1.27;;;;;;;;;;5062073;28;19924;-70
2023/08/29 04:18:47;;;;;;;6.05;1.40;;;;;;;;;;5062044;28;20419;-70
2023/08/29 04:21:18;;;;;;;3.60;1.10;;;;;;;;;;5063391;28;20056;-73
2023/08/29 04:23:49;;;;;;;2.22;1.17;;;;;;;;;;5063343;28;20057;-72
2023/08/29 04:26:21;;;;;;;3.03;1.23;;;;;;;;;;5063513;28;20059;-73
2023/08/29 04:28:51;;;;;;;2.85;0.98;;;;;;;;;;5062032;28;20053;-73
2023/08/29 04:31:22;;;;;;;3.38;1.05;;;;;;;;;;5063400;28;20403;-71
2023/08/29 04:33:53;;;;;;;4.93;1.20;;;;;;;;;;5061071;28;20064;-72
2023/08/29 04:36:23;;;;;;;3.08;0.90;;;;;;;;;;5063100;28;20051;-70
2023/08/29 04:38:53;;;;;;;0.60;0.60;;;;;;;;;;5062937;28;20483;-73
2023/08/29 04:41:24;;;;;;;1.67;0.80;;;;;;;;;;5062038;28;20059;-72
2023/08/29 04:43:55;;;;;;;3.10;1.05;;;;;;;;;;5061376;28;20044;-72
2023/08/29 04:46:26;;;;;;;4.47;0.95;;;;;;;;;;5061034;28;20060;-71
2023/08/29 04:48:56;;;;;;;5.50;1.20;;;;;;;;;;5061559;28;20053;-71
2023/08/29 04:51:27;;;;;;;3.80;0.73;;;;;;;;;;5063349;28;20055;-71
2023/08/29 04:53:58;;;;;;;2.30;0.70;;;;;;;;;;5061192;28;20756;-72
2023/08/29 04:56:35;;;;;;;2.83;1.20;;;;;;;;;;5061155;28;20052;-72
2023/08/29 04:59:05;;;;;;;0.85;0.80;;;;;;;;;;5061303;28;20517;-72
2023/08/29 05:01:36;;;;;;;1.23;0.60;;;;;;;;;;5061830;28;20740;-73
2023/08/29 05:04:10;;;;;;;1.92;0.88;;;;;;;;;;5061566;28;20063;-73
2023/08/29 05:06:40;;;;;;;1.83;0.80;;;;;;;;;;5061126;28;20052;-71
2023/08/29 05:09:11;;;;;;;;;;;;;;;;;;5063202;28;20056;-71
2023/08/29 05:11:41;;;;;;;4.47;0.90;;;;;;;;;;5061566;28;19932;-73
2023/08/29 05:14:12;;;;;;;1.27;0.80;;;;;;;;;;5061331;28;20063;-72
2023/08/29 05:16:44;;;;;;;1.20;0.98;;;;;;;;;;5061261;28;20056;-71
2023/08/29 05:19:15;;;;;;;4.97;1.17;;;;;;;;;;5061070;28;20049;-73
2023/08/29 05:21:44;;;;;;;3.85;0.90;;;;;;;;;;5061127;28;20049;-71
2023/08/29 05:24:15;;;;;;;2.60;0.80;;;;;;;;;;5044598;28;20061;-73
2023/08/29 05:26:47;;;;;;;2.30;1.00;;;;;;;;;;5062601;28;20151;-73
2023/08/29 05:29:17;;;;;;;2.00;0.65;;;;;;;;;;5063161;28;20457;-72
2023/08/29 05:31:47;;;;;;;4.13;1.05;;;;;;;;;;5063018;28;20063;-73
2023/08/29 05:34:17;;;;;;;2.25;0.90;;;;;;;;;;5062414;28;20044;-73
2023/08/29 05:36:51;;;;;;;4.18;1.40;;;;;;;;;;5062515;28;20082;-73
2023/08/29 05:39:23;;;;;;;3.00;1.00;;;;;;;;;;5062325;28;20052;-73
2023/08/29 05:41:53;;;;;;;1.67;0.88;;;;;;;;;;5062499;28;20577;-73
2023/08/29 05:44:22;;;;;;;;;;;;;;;;;;5061746;28;20542;-72
2023/08/29 05:46:52;;;;;;;4.35;1.20;;;;;;;;;;5062683;28;20340;-70
2023/08/29 05:49:23;;;;;;;2.65;1.40;;;;;;;;;;5062766;28;20045;-70
2023/08/29 05:51:55;;;;;;;1.80;0.85;;;;;;;;;;5062112;28;20057;-73
2023/08/29 05:54:24;;;;;;;3.40;1.17;;;;;;;;;;5062671;28;20048;-70
2023/08/29 05:56:55;;;;;;;2.20;1.40;;;;;;;;;;5065838;28;20482;-73
2023/08/29 05:59:26;;;;;;;3.05;1.15;;;;;;;;;;5065464;28;20071;-71
2023/08/29 06:01:56;;;;;;;3.83;1.20;;;;;;;;;;5065754;28;20048;-73
2023/08/29 06:04:27;;;;;;;2.65;1.40;;;;;;;;;;5066065;28;20055;-71
2023/08/29 06:06:57;;;;;;;2.45;1.40;;;;;;;;;;5066287;28;20044;-72
2023/08/29 06:09:27;;;;;;;1.80;1.23;;;;;;;;;;5065846;28;20044;-73
2023/08/29 06:11:57;;;;;;;2.22;1.00;;;;;;;;;;5065635;28;20041;-73
2023/08/29 06:14:30;;;;;;;1.20;0.90;;;;;;;;;;5064239;28;20060;-73
2023/08/29 06:17:00;;;;;;;1.63;1.08;;;;;;;;;;5066225;28;20044;-73
2023/08/29 06:19:30;;;;;;;1.35;0.98;;;;;;;;;;5065951;28;20067;-69
2023/08/29 06:22:02;;;;;;;1.38;1.05;;;;;;;;;;5065697;28;20056;-73
2023/08/29 06:24:33;;;;;;;2.88;1.10;;;;;;;;;;5065376;28;20060;-73
2023/08/29 06:27:04;;;;;;;4.95;1.08;;;;;;;;;;5064878;28;20103;-73
2023/08/29 06:29:34;;;;;;;2.17;1.20;;;;;;;;;;5065304;28;20045;-72
2023/08/29 06:32:05;;;;;;;3.50;1.10;;;;;;;;;;5065300;28;20053;-73
2023/08/29 06:34:42;;;;;;;4.55;1.55;;;;;;;;;;5063654;28;20059;-72
2023/08/29 06:37:12;;;;;;;2.58;1.10;;;;;;;;;;5065146;28;20045;-73
2023/08/29 06:39:43;;;;;;;3.10;1.30;;;;;;;;;;5065001;28;20529;-71
2023/08/29 06:42:13;;;;;;;2.63;1.10;;;;;;;;;;5063503;28;20067;-72
2023/08/29 06:44:43;;;;;;;;;;;;;;;;;;5065305;28;20055;-73
2023/08/29 06:47:14;;;;;;;1.90;1.52;;;;;;;;;;5065187;28;19925;-72
2023/08/29 06:49:45;;;;;;;1.38;0.90;;;;;;;;;;5064492;28;20398;-72
2023/08/29 06:52:16;;;;;;;3.42;1.27;;;;;;;;;;5064276;28;20053;-72
2023/08/29 06:54:46;;;;;;;3.08;1.48;;;;;;;;;;5063627;28;20056;-71
2023/08/29 06:57:15;;;;;;;;;;;;;;;;;;5063917;28;20059;-71
2023/08/29 06:59:47;;;;;;;2.08;1.02;;;;;;;;;;5065032;28;19948;-73
2023/08/29 07:02:18;;;;;;;1.52;1.08;;;;;;;;;;5064979;28;20048;-72
2023/08/29 07:04:48;;;;;;;2.45;1.23;;;;;;;;;;5064717;28;20519;-73
2023/08/29 07:07:19;;;;;;;1.77;1.20;;;;;;;;;;5062782;28;20052;-72
2023/08/29 07:09:50;;;;;;;3.40;1.30;;;;;;;;;;5064539;28;20467;-73
2023/08/29 07:12:20;;;;;;;4.28;1.20;;;;;;;;;;5064101;28;20523;-71
2023/08/29 07:14:50;;;;;;;1.77;1.35;;;;;;;;;;5064507;28;20047;-72
2023/08/29 07:17:20;;;;;;;4.28;1.30;;;;;;;;;;5064634;28;20052;-72
2023/08/29 07:19:51;;;;;;;4.22;1.50;;;;;;;;;;5064247;28;20044;-72
2023/08/29 07:22:23;;;;;;;4.97;1.55;;;;;;;;;;5064454;28;20060;-73
2023/08/29 07:24:53;;;;;;;4.07;1.67;;;;;;;;;;5064196;28;20077;-73
2023/08/29 07:27:24;;;;;;;2.95;1.38;;;;;;;;;;5063054;28;20060;-72
2023/08/29 07:29:54;;;;;;;3.53;1.77;;;;;;;;;;5064182;28;20048;-71
2023/08/29 07:32:24;;;;;;;;;;;;;;;;;;5064594;28;20044;-72
2023/08/29 07:34:56;;;;;;;6.30;1.95;;;;;;;;;;5063855;28;19935;-70
2023/08/29 07:37:27;;;;;;;2.78;1.20;;;;;;;;;;5062795;28;20391;-72
2023/08/29 07:39:56;;;;;;;10.98;1.77;;;;;;;;;;5064247;28;20068;-72
2023/08/29 07:42:26;;;;;;;2.55;1.30;;;;;;;;;;5064098;28;20040;-72
2023/08/29 07:44:58;;;;;;;2.45;1.30;;;;;;;;;;5063158;28;20052;-71
2023/08/29 07:47:30;;;;;;;3.92;1.65;;;;;;;;;;5063986;28;20518;-71
2023/08/29 07:50:00;;;;;;;3.22;1.38;;;;;;;;;;5063978;28;20037;-73
2023/08/29 07:52:30;;;;;;;2.70;1.63;;;;;;;;;;5062228;28;20064;-73
2023/08/29 07:55:00;;;;;;;3.13;1.50;;;;;;;;;;5063693;28;20056;-72
2023/08/29 07:57:31;;;;;;;2.78;1.63;;;;;;;;;;5063422;28;20044;-71
2023/08/29 08:00:02;;;;;;;2.40;1.20;;;;;;;;;;5063465;28;20856;-71
2023/08/29 08:02:38;;;;;;;4.57;1.80;;;;;;;;;;5063686;28;20045;-72
2023/08/29 08:05:15;;;;;;;2.33;1.45;;;;;;;;;;5063478;28;20052;-73
2023/08/29 08:07:46;;;;;;;3.22;1.85;;;;;;;;;;5063625;28;20049;-71
2023/08/29 08:10:18;;;;;;;5.40;2.22;;;;;;;;;;5063299;28;20049;-73
2023/08/29 08:12:49;;;;;;;5.15;1.70;;;;;;;;;;5062631;28;20075;-73
2023/08/29 08:15:20;;;;;;;5.00;2.13;;;;;;;;;;5062215;28;20087;-73
2023/08/29 08:17:51;;;;;;;4.00;1.95;;;;;;;;;;5062655;28;20063;-70
2023/08/29 08:20:22;;;;;;;3.95;1.77;;;;;;;;;;5062974;28;20059;-73
2023/08/29 08:22:53;;;;;;;6.80;2.92;;;;;;;;;;5063451;28;20063;-71
2023/08/29 08:25:23;;;;;;;5.57;3.08;;;;;;;;;;5062932;28;20044;-71
2023/08/29 08:27:54;;;;;;;3.65;2.47;;;;;;;;;;5062037;28;20511;-73
2023/08/29 08:30:28;;;;;;;5.53;2.40;;;;;;;;;;5063260;28;20037;-73
2023/08/29 08:32:59;;;;;;;3.75;1.63;;;;;;;;;;5063353;28;20454;-71
2023/08/29 08:35:29;;;;;;;4.32;1.65;;;;;;;;;;5063546;28;20048;-71
2023/08/29 08:38:07;;;;;;;4.57;2.25;;;;;;;;;;5063347;28;20044;-72
2023/08/29 08:40:38;;;;;;;4.07;2.78;;;;;;;;;;5063473;28;20458;-70
2023/08/29 08:43:10;;;;;;;3.70;2.28;;;;;;;;;;5063442;28;20055;-73
2023/08/29 08:45:42;;;;;;;5.85;2.20;;;;;;;;;;5063069;28;20059;-71
2023/08/29 08:48:13;;;;;;;3.75;2.50;;;;;;;;;;5063047;28;20049;-74
2023/08/29 08:50:45;;;;;;;5.95;2.90;;;;;;;;;;5063259;28;20048;-73
2023/08/29 08:53:22;;;;;;;4.93;2.28;;;;;;;;;;5061106;28;20439;-72
2023/08/29 08:55:53;;;;;;;3.78;1.85;;;;;;;;;;5062814;28;20533;-71
2023/08/29 08:58:22;;;;;;;;;;;;;;;;;;5063164;28;20086;-73
2023/08/29 09:00:55;;;;;;;4.38;2.22;;;;;;;;;;5062436;28;19939;-73
2023/08/29 09:03:26;;;;;;;3.95;1.73;;;;;;;;;;5063389;28;20048;-73
2023/08/29 09:05:56;;;;;;;5.28;2.00;;;;;;;;;;5063004;28;20052;-72
2023/08/29 09:08:31;;;;;;;4.72;1.83;;;;;;;;;;5063092;28;20052;-73
2023/08/29 09:11:03;;;;;;;3.08;1.67;;;;;;;;;;5062682;28;20770;-75
2023/08/29 09:13:33;;;;;;;3.10;1.45;;;;;;;;;;5062691;28;20415;-74
2023/08/29 09:16:04;;;;;;;6.10;2.42;;;;;;;;;;5063064;28;20052;-72
2023/08/29 09:18:34;;;;;;;4.43;2.10;;;;;;;;;;5062726;28;21134;-71
2023/08/29 09:21:05;;;;;;;5.47;1.95;;;;;;;;;;5063113;28;20056;-72
2023/08/29 09:23:39;;;;;;;3.80;1.90;;;;;;;;;;5062881;28;20052;-73
2023/08/29 09:26:12;;;;;;;2.80;1.65;;;;;;;;;;5063490;28;20044;-71
2023/08/29 09:28:44;;;;;;;4.22;2.00;;;;;;;;;;5062943;28;20054;-72
2023/08/29 09:31:17;;;;;;;3.53;1.70;;;;;;;;;;5066565;28;20099;-73
2023/08/29 09:33:49;;;;;;;5.97;1.90;;;;;;;;;;5066618;28;20059;-71
2023/08/29 09:36:21;;;;;;;6.03;2.00;;;;;;;;;;5065917;28;20511;-75
2023/08/29 09:38:51;;;;;;;8.55;2.30;;;;;;;;;;5064167;28;20055;-71
2023/08/29 09:41:22;;;;;;;3.53;1.98;;;;;;;;;;5066151;28;20412;-71
2023/08/29 09:43:53;;;;;;;3.75;2.35;;;;;;;;;;5066069;28;20067;-71
2023/08/29 09:46:30;;;;;;;15.32;2.78;;;;;;;;;;5066150;28;20056;-72
2023/08/29 09:49:01;;;;;;;6.65;2.60;;;;;;;;;;5066580;28;20045;-72
2023/08/29 09:51:34;;;;;;;7.10;2.15;;;;;;;;;;5066498;28;20508;-71
2023/08/29 09:54:09;;;;;;;4.80;2.40;;;;;;;;;;5064147;28;20057;-73
2023/08/29 09:56:42;;;;;;;6.35;1.90;;;;;;;;;;5065926;28;20388;-74
2023/08/29 09:59:17;;;;;;;6.07;2.78;;;;;;;;;;5065800;28;20044;-80
2023/08/29 10:01:52;;;;;;;10.90;3.03;;;;;;;;;;5064236;28;20052;-72
2023/08/29 10:04:26;;;;;;;6.15;2.60;;;;;;;;;;5065047;28;20059;-72
2023/08/29 10:06:59;;;;;;;8.40;2.42;;;;;;;;;;5065303;28;20064;-72
2023/08/29 10:09:31;;;;;;;8.00;4.40;;;;;;;;;;5066029;28;20059;-72
2023/08/29 10:12:29;;;;;;;13.45;3.58;;;;;;;;;;5064327;28;20044;-75
2023/08/29 10:15:01;;;;;;;5.55;3.03;;;;;;;;;;5064728;28;20052;-73
2023/08/29 10:17:36;;;;;;;3.95;2.50;;;;;;;;;;5065454;28;20056;-72
2023/08/29 10:20:10;;;;;;;3.90;2.38;;;;;;;;;;5065613;28;20483;-73
2023/08/29 10:22:48;;;;;;;6.28;3.38;;;;;;;;;;5074051;28;20052;-77
2023/08/29 10:25:21;;;;;;;9.82;3.45;;;;;;;;;;5086001;28;20044;-74
2023/08/29 10:27:54;;;;;;;9.40;3.42;;;;;;;;;;5085619;28;20048;-71
2023/08/29 10:30:25;;;;;;;20.50;3.50;;;;;;;;;;5083971;28;20055;-71
2023/08/29 10:32:57;;;;;;;8.45;2.60;;;;;;;;;;5085535;28;20048;-70
2023/08/29 10:35:32;;;;;;;17.08;5.47;;;;;;;;;;5085544;28;20062;-73
2023/08/29 10:38:07;;;;;;;16.42;4.80;;;;;;;;;;5085662;28;20040;-73
2023/08/29 10:40:44;;;;;;;8.93;2.85;;;;;;;;;;5084589;28;20055;-73
2023/08/29 10:43:25;;;;;;;12.40;3.95;;;;;;;;;;5085380;28;20055;-78
2023/08/29 10:45:59;;;;;;;6.43;2.90;;;;;;;;;;5085431;28;20553;-70
2023/08/29 10:48:30;;;;;;;8.07;2.72;;;;;;;;;;5085595;28;20055;-71
2023/08/29 10:51:19;;;;;;;7.45;3.17;;;;;;;;;;5086059;28;20048;-71
2023/08/29 10:53:57;;;;;;;9.27;3.63;;;;;;;;;;5085263;28;20040;-74
2023/08/29 10:56:39;;;;;;;5.03;2.05;;;;;;;;;;5084835;28;20067;-72
2023/08/29 10:59:36;;;;;;;8.43;3.40;;;;;;;;;;5085232;28;20051;-74
2023/08/29 11:02:41;;;;;;;4.78;2.65;;;;;;;;;;5085179;28;20506;-71
2023/08/29 11:05:14;;;;;;;9.98;2.58;;;;;;;;;;5082669;28;20052;-72
2023/08/29 11:07:45;;;;;;;4.15;2.78;;;;;;;;;;5084740;28;20040;-73
2023/08/29 11:10:22;;;;;;;11.15;3.80;;;;;;;;;;5084986;28;20040;-70
2023/08/29 11:13:09;;;;;;;19.10;3.78;;;;;;;;;;5083621;28;20051;-70
2023/08/29 11:15:52;;;;;;;11.25;3.97;;;;;;;;;;5084332;28;20048;-71
2023/08/29 11:18:35;;;;;;;10.57;4.35;;;;;;;;;;5084242;28;20059;-72
2023/08/29 11:21:06;;;;;;;7.65;3.30;;;;;;;;;;5084749;28;20052;-73
2023/08/29 11:23:41;;;;;;;9.82;4.22;;;;;;;;;;5084096;28;20482;-73
2023/08/29 11:26:12;;;;;;;11.23;3.50;;;;;;;;;;5084020;28;20044;-73
2023/08/29 11:28:45;;;;;;;10.60;3.38;;;;;;;;;;5083689;28;20552;-71
2023/08/29 11:31:20;;;;;;;10.02;4.25;;;;;;;;;;5084441;28;20066;-72
2023/08/29 11:33:52;;;;;;;13.65;4.88;;;;;;;;;;5082595;28;20067;-72
2023/08/29 11:36:24;;;;;;;7.15;3.65;;;;;;;;;;5083971;28;20075;-73
2023/08/29 11:38:57;;;;;;;8.25;4.18;;;;;;;;;;5083025;28;20060;-71
2023/08/29 11:41:29;;;;;;;9.85;3.50;;;;;;;;;;5082514;28;20059;-73
2023/08/29 11:44:27;;;;;;;11.45;3.45;;;;;;;;;;5084358;28;20803;-71
2023/08/29 11:47:25;;;;;;;6.88;3.20;;;;;;;;;;5083977;28;20040;-72
2023/08/29 11:49:56;;;;;;;6.78;3.80;;;;;;;;;;5083999;28;20052;-73
2023/08/29 11:52:27;;;;;;;8.70;3.60;;;;;;;;;;5083323;28;20880;-73
2023/08/29 11:54:57;;;;;;;18.08;7.55;;;;;;;;;;5084049;28;20047;-72
2023/08/29 11:57:31;;;;;;;8.48;3.88;;;;;;;;;;5083929;28;20044;-73
2023/08/29 12:00:04;;;;;;;9.23;3.17;;;;;;;;;;5084499;28;20726;-72
2023/08/29 12:02:36;;;;;;;14.02;5.95;;;;;;;;;;5083326;28;20494;-73
2023/08/29 12:05:08;;;;;;;17.48;5.35;;;;;;;;;;5083544;28;20087;-73
2023/08/29 12:07:41;;;;;;;16.23;6.63;;;;;;;;;;5083706;28;20067;-74
2023/08/29 12:10:16;;;;;;;9.48;2.47;;;;;;;;;;5065330;28;20465;-72
2023/08/29 12:12:47;;;;;;;10.52;4.00;;;;;;;;;;5083533;28;20052;-74
2023/08/29 12:15:17;;;;;;;6.93;3.33;;;;;;;;;;5083867;28;20407;-71
2023/08/29 12:18:20;;;;;;;19.13;4.13;;;;;;;;;;5083705;28;20257;-73
2023/08/29 12:20:51;;;;;;;9.73;3.10;;;;;;;;;;5081406;28;20748;-73
2023/08/29 12:23:27;;;;;;;11.80;3.40;;;;;;;;;;5085301;28;20083;-74
2023/08/29 12:25:58;;;;;;;5.50;2.67;;;;;;;;;;5083477;28;20388;-72
2023/08/29 12:28:29;;;;;;;11.90;3.08;;;;;;;;;;5083914;28;20833;-73
2023/08/29 12:31:01;;;;;;;15.70;2.83;;;;;;;;;;5082134;28;20552;-71
2023/08/29 12:33:32;;;;;;;7.13;3.00;;;;;;;;;;5082867;28;20048;-71
2023/08/29 12:36:03;;;;;;;4.57;2.72;;;;;;;;;;5083514;28;20048;-72
2023/08/29 12:38:34;;;;;;;4.38;2.75;;;;;;;;;;5083318;28;20058;-73
2023/08/29 12:41:04;;;;;;;6.88;3.20;;;;;;;;;;5083498;28;20501;-72
2023/08/29 12:43:35;;;;;;;9.73;3.42;;;;;;;;;;5083340;28;20419;-73
2023/08/29 12:46:05;;;;;;;9.48;6.32;;;;;;;;;;5082683;28;20330;-73
2023/08/29 12:48:37;;;;;;;7.05;4.57;;;;;;;;;;5083420;28;20491;-72
2023/08/29 12:51:08;;;;;;;9.65;3.60;;;;;;;;;;5083207;28;20044;-73
2023/08/29 12:53:40;;;;;;;14.70;3.30;;;;;;;;;;5083223;28;20063;-71
2023/08/29 12:56:10;;;;;;;6.40;3.00;;;;;;;;;;5083256;28;20387;-73
2023/08/29 12:58:42;;;;;;;8.80;3.85;;;;;;;;;;5083132;28;20411;-77
2023/08/29 13:01:12;;;;;;;17.85;3.75;;;;;;;;;;5083111;28;20040;-74
2023/08/29 13:03:47;;;;;;;5.57;2.95;;;;;;;;;;5083533;28;20506;-72
2023/08/29 13:06:19;;;;;;;4.05;2.92;;;;;;;;;;5087221;28;20422;-75
2023/08/29 13:08:51;;;;;;;4.57;2.90;;;;;;;;;;5087294;28;20509;-73
2023/08/29 13:11:22;;;;;;;8.52;3.08;;;;;;;;;;5084721;28;20538;-74
2023/08/29 13:13:52;;;;;;;11.55;3.40;;;;;;;;;;5087014;28;20051;-74
2023/08/29 13:16:34;;;;;;;13.30;8.55;;;;;;;;;;5087038;28;20059;-73
2023/08/29 13:19:07;;;;;;;6.18;3.10;;;;;;;;;;5086571;28;20051;-73
2023/08/29 13:21:38;;;;;;;7.28;3.22;;;;;;;;;;5086909;28;20052;-72
2023/08/29 13:24:08;;;;;;;6.47;2.90;;;;;;;;;;5086664;28;20048;-74
2023/08/29 13:26:38;;;;;;;8.43;3.53;;;;;;;;;;5087076;28;20051;-73
2023/08/29 13:29:10;;;;;;;4.22;3.00;;;;;;;;;;5087578;28;20056;-74
2023/08/29 13:31:42;;;;;;;4.40;2.78;;;;;;;;;;5086608;28;20047;-73
2023/08/29 13:34:13;;;;;;;7.70;3.42;;;;;;;;;;5086541;28;20052;-73
2023/08/29 13:36:44;;;;;;;8.38;3.53;;;;;;;;;;5086972;28;20048;-75
2023/08/29 13:39:15;;;;;;;9.57;3.97;;;;;;;;;;5085417;28;20063;-73
2023/08/29 13:41:46;;;;;;;8.43;3.78;;;;;;;;;;5086537;28;20059;-74
2023/08/29 13:44:16;;;;;;;6.68;2.90;;;;;;;;;;5086337;28;20048;-73
2023/08/29 13:46:48;;;;;;;7.03;3.80;;;;;;;;;;5087238;28;20048;-74
2023/08/29 13:49:18;;;;;;;10.07;3.58;;;;;;;;;;5086331;28;20040;-73
2023/08/29 13:51:50;;;;;;;8.00;3.40;;;;;;;;;;5086291;28;20609;-74
2023/08/29 13:54:23;;;;;;;4.20;3.15;;;;;;;;;;5086055;28;20048;-74
2023/08/29 13:56:55;;;;;;;5.65;3.20;;;;;;;;;;5086091;28;20056;-74
2023/08/29 13:59:27;;;;;;;6.32;3.33;;;;;;;;;;5086341;28;20040;-74
2023/08/29 14:01:59;;;;;;;8.45;2.50;;;;;;;;;;5086078;28;20537;-73
2023/08/29 14:04:29;;;;;;;8.38;3.08;;;;;;;;;;5085988;28;20647;-74
2023/08/29 14:06:59;;;;;;;6.45;2.97;;;;;;;;;;5086171;28;20529;-73
2023/08/29 14:09:32;;;;;;;6.22;3.00;;;;;;;;;;5085768;28;20526;-77
2023/08/29 14:12:04;;;;;;;6.05;2.70;;;;;;;;;;5086354;28;20534;-74
2023/08/29 14:14:34;;;;;;;9.15;3.10;;;;;;;;;;5086307;28;20051;-75
2023/08/29 14:17:05;;;;;;;9.57;2.95;;;;;;;;;;5084993;28;20529;-73
2023/08/29 14:19:36;;;;;;;3.90;2.80;;;;;;;;;;5085524;28;20044;-75
2023/08/29 14:22:08;;;;;;;4.10;2.80;;;;;;;;;;5085781;28;20858;-74
2023/08/29 14:24:42;;;;;;;4.57;3.00;;;;;;;;;;5085267;28;20455;-75
2023/08/29 14:27:12;;;;;;;7.85;2.83;;;;;;;;;;5085519;28;20048;-75
2023/08/29 14:29:45;;;;;;;4.75;3.00;;;;;;;;;;5085459;28;20048;-73
2023/08/29 14:32:16;;;;;;;7.25;2.95;;;;;;;;;;5085168;28;20052;-73
2023/08/29 14:34:47;;;;;;;4.00;2.47;;;;;;;;;;5085594;28;20510;-74
2023/08/29 14:37:17;;;;;;;5.97;2.90;;;;;;;;;;5084726;28;20063;-73
2023/08/29 14:39:51;;;;;;;5.18;3.10;;;;;;;;;;5084939;28;20059;-72
2023/08/29 14:42:22;;;;;;;6.28;4.07;;;;;;;;;;5085153;28;20399;-73
2023/08/29 14:44:53;;;;;;;4.00;2.80;;;;;;;;;;5085831;28;20051;-73
2023/08/29 14:47:26;;;;;;;3.47;2.30;;;;;;;;;;5085264;28;20063;-75
2023/08/29 14:49:57;;;;;;;2.80;2.28;;;;;;;;;;5085423;28;20043;-74
2023/08/29 14:52:28;;;;;;;5.47;2.83;;;;;;;;;;5085123;28;20052;-74
2023/08/29 14:54:59;;;;;;;4.78;2.50;;;;;;;;;;5084388;28;20532;-74
2023/08/29 14:57:30;;;;;;;7.25;2.95;;;;;;;;;;5085035;28;20047;-74
2023/08/29 15:00:05;;;;;;;3.97;2.58;;;;;;;;;;5084750;28;20059;-71
2023/08/29 15:02:37;;;;;;;4.35;2.67;;;;;;;;;;5083980;28;20056;-73
2023/08/29 15:05:09;;;;;;;3.67;2.47;;;;;;;;;;5085030;28;20517;-74
2023/08/29 15:07:40;;;;;;;6.30;2.92;;;;;;;;;;5085350;28;20063;-72
2023/08/29 15:10:13;;;;;;;6.13;2.75;;;;;;;;;;5083568;28;20051;-73
2023/08/29 15:12:45;;;;;;;6.55;2.78;;;;;;;;;;5084255;28;20126;-73
2023/08/29 15:15:18;;;;;;;5.30;2.35;;;;;;;;;;5084567;28;20482;-73